Terminal Aerodrome Forecast
Issued by NWS

Home | Current Version | Previous Version | Graphics & Text | Print | Product List | Glossary On
Versions: 1 2 3 4 5 6 7 8 9 10 11 12 13 14
000
FTUS43 KGRB 011502 AAA
TAFRHI
TAF AMD
KRHI 011502Z 0115/0212 31007KT P6SM SCT015 BKN100
      TEMPO 0115/0116 5SM -SHSN BKN015
     FM011600 30007KT 6SM -SHSN SCT005 OVC011
     FM011900 30007KT P6SM OVC015=

USA.gov is the U.S. government's official web portal to all federal, state and local government web resources and services.